Time;durP1;ratioP1;P1;durP2;ratioP2;P2;SDS_P1;SDS_P2;PMS_P1;PMS_P2;Temp;Humidity;BMP_temperature;BMP_pressure;BME280_temperature;BME280_humidity;BME280_pressure;Samples;Min_cycle;Max_cycle;Signal;HPM_P1;HPM_P2
2022/04/12 00:00:31;;;;;;;0.10;0.10;;;;;;;23.00;14.48;100408.16;4992958;28;20033;-72
2022/04/12 00:02:56;;;;;;;0.20;0.20;;;;;;;22.98;14.54;100404.91;4995411;28;20038;-72
2022/04/12 00:05:22;;;;;;;0.30;0.30;;;;;;;23.00;14.57;100410.88;4995608;28;20034;-72
2022/04/12 00:07:47;;;;;;;0.10;0.10;;;;;;;22.98;14.52;100404.91;4996701;28;20405;-73
2022/04/12 00:10:13;;;;;;;0.20;0.20;;;;;;;22.99;14.71;100397.53;4996805;28;20053;-72
2022/04/12 00:12:39;;;;;;;0.20;0.20;;;;;;;23.01;14.61;100407.09;4996330;28;20022;-72
2022/04/12 00:15:05;;;;;;;0.20;0.20;;;;;;;23.00;14.42;100410.06;4995940;28;20030;-72
2022/04/12 00:20:15;;;;;;;0.15;0.15;;;;;;;23.00;14.53;100410.06;4996343;28;20098;-71
2022/04/12 00:22:40;;;;;;;0.20;0.20;;;;;;;22.98;14.56;100407.63;4996328;28;20022;-71
2022/04/12 00:25:10;;;;;;;0.25;0.25;;;;;;;22.95;14.56;100413.59;4996558;28;20369;-72
2022/04/12 00:27:37;;;;;;;0.20;0.20;;;;;;;22.96;14.40;100415.25;5014579;28;20034;-73
2022/04/12 00:30:09;;;;;;;0.20;0.20;;;;;;;22.96;14.48;100412.53;5015595;28;20037;-72
2022/04/12 00:32:34;;;;;;;0.17;0.17;;;;;;;22.95;14.54;100413.59;5015520;28;20044;-73
2022/04/12 00:35:00;;;;;;;0.20;0.20;;;;;;;22.93;14.47;100420.44;5015501;28;20034;-73
2022/04/12 00:37:26;;;;;;;0.20;0.20;;;;;;;22.94;14.39;100416.59;5016103;28;20029;-73
2022/04/12 00:39:51;;;;;;;0.30;0.20;;;;;;;22.94;14.41;100417.44;5015716;28;20536;-72
2022/04/12 00:42:17;;;;;;;0.10;0.10;;;;;;;22.95;14.48;100420.97;5015340;28;20495;-72
2022/04/12 00:44:42;;;;;;;0.25;0.25;;;;;;;22.90;14.57;100420.97;5016402;28;20072;-73
2022/04/12 00:47:07;;;;;;;0.30;0.30;;;;;;;22.95;14.39;100424.50;5015555;28;20029;-72
2022/04/12 00:49:33;;;;;;;0.10;0.10;;;;;;;22.94;14.42;100422.88;5015491;28;20026;-72
2022/04/12 00:51:58;;;;;;;0.30;0.30;;;;;;;22.94;14.27;100422.88;5015195;28;20104;-71
2022/04/12 00:54:25;;;;;;;0.20;0.20;;;;;;;22.88;14.48;100418.50;5015382;28;20029;-72
2022/04/12 00:56:51;;;;;;;0.10;0.10;;;;;;;22.90;14.43;100421.75;5013903;28;20038;-73
2022/04/12 00:59:16;;;;;;;0.20;0.20;;;;;;;22.92;14.46;100418.78;5015253;28;20033;-73
2022/04/12 01:01:42;;;;;;;0.10;0.10;;;;;;;22.92;14.48;100427.78;5015214;28;20022;-72
2022/04/12 01:04:07;;;;;;;0.20;0.20;;;;;;;22.92;14.43;100427.78;5015109;28;20040;-72
2022/04/12 01:06:33;;;;;;;0.20;0.20;;;;;;;22.93;14.57;100434.06;5014798;28;20029;-72
2022/04/12 01:08:58;;;;;;;0.10;0.10;;;;;;;22.92;14.53;100430.50;5015113;28;20026;-73
2022/04/12 01:11:26;;;;;;;0.20;0.20;;;;;;;22.91;14.56;100434.31;5014247;28;20449;-72
2022/04/12 01:13:51;;;;;;;0.20;0.20;;;;;;;22.89;14.42;100431.03;5014525;28;20105;-73
2022/04/12 01:16:17;;;;;;;0.20;0.20;;;;;;;22.92;14.42;100435.13;5014774;28;20018;-73
2022/04/12 01:18:43;;;;;;;0.15;0.10;;;;;;;22.91;14.41;100434.31;5014688;28;20030;-72
2022/04/12 01:21:08;;;;;;;0.20;0.20;;;;;;;22.91;14.64;100436.22;5014953;28;20037;-73
2022/04/12 01:24:00;;;;;;;0.22;0.22;;;;;;;22.94;14.48;100433.78;5014828;28;20033;-72
2022/04/12 01:26:26;;;;;;;0.13;0.13;;;;;;;22.89;14.56;100433.78;5004414;28;20130;-72
2022/04/12 01:28:52;;;;;;;0.20;0.20;;;;;;;22.90;14.55;100445.47;4993101;28;20061;-71
2022/04/12 01:31:17;;;;;;;0.10;0.10;;;;;;;22.90;14.57;100454.47;4992991;28;20042;-71
2022/04/12 01:33:43;;;;;;;0.10;0.10;;;;;;;22.90;14.62;100448.22;4992693;28;20394;-73
2022/04/12 01:36:08;;;;;;;0.10;0.10;;;;;;;22.89;14.64;100450.13;4992564;28;20536;-73
2022/04/12 01:38:33;;;;;;;0.13;0.13;;;;;;;22.90;14.43;100459.91;4992602;28;20045;-73
2022/04/12 01:40:59;;;;;;;0.10;0.10;;;;;;;22.89;14.40;100458.28;4992441;28;20030;-72
2022/04/12 01:43:24;;;;;;;0.20;0.20;;;;;;;22.88;14.62;100456.66;4992728;28;20042;-72
2022/04/12 01:45:50;;;;;;;0.38;0.25;;;;;;;22.88;14.63;100462.09;4992646;28;20544;-72
2022/04/12 01:48:15;;;;;;;0.10;0.10;;;;;;;22.87;14.48;100465.94;4992465;28;20129;-72
2022/04/12 01:50:41;;;;;;;0.17;0.17;;;;;;;22.86;14.58;100464.28;4992552;28;20034;-71
2022/04/12 01:53:06;;;;;;;0.17;0.17;;;;;;;22.86;14.44;100467.00;4992151;28;20373;-73
2022/04/12 01:55:31;;;;;;;0.10;0.10;;;;;;;22.87;14.53;100464.00;4992184;28;20022;-73
2022/04/12 01:57:57;;;;;;;0.32;0.30;;;;;;;22.87;14.53;100472.19;4992279;28;20360;-73
2022/04/12 02:00:22;;;;;;;0.10;0.10;;;;;;;22.87;14.51;100465.94;4992312;28;20390;-72
2022/04/12 02:02:48;;;;;;;0.20;0.20;;;;;;;22.81;14.57;100470.50;4992740;28;20393;-72
2022/04/12 02:05:13;;;;;;;0.20;0.20;;;;;;;22.86;14.68;100477.91;4994555;28;20369;-72
2022/04/12 02:07:41;;;;;;;0.15;0.15;;;;;;;22.85;14.57;100476.25;4994411;28;20420;-72
2022/04/12 02:10:08;;;;;;;0.10;0.10;;;;;;;22.85;14.58;100476.25;5009457;28;20030;-71
2022/04/12 02:12:33;;;;;;;0.10;0.10;;;;;;;22.84;14.62;100489.06;4992901;28;20216;-71
2022/04/12 02:14:59;;;;;;;0.28;0.25;;;;;;;22.83;14.75;100481.97;4994419;28;20026;-73
2022/04/12 02:17:25;;;;;;;0.20;0.20;;;;;;;22.81;14.55;100484.13;4994546;28;20030;-71
2022/04/12 02:19:53;;;;;;;0.20;0.20;;;;;;;22.83;14.57;100487.41;4976797;28;20397;-71
2022/04/12 02:22:19;;;;;;;0.20;0.20;;;;;;;22.83;14.64;100495.59;4994628;28;20046;-73
2022/04/12 02:24:45;;;;;;;0.20;0.20;;;;;;;22.83;14.51;100497.50;4993676;28;20026;-73
2022/04/12 02:27:10;;;;;;;0.20;0.20;;;;;;;22.82;14.70;100490.44;5007091;28;20473;-73
2022/04/12 02:29:35;;;;;;;0.20;0.20;;;;;;;22.81;14.59;100491.50;5013606;28;20026;-72
2022/04/12 02:32:01;;;;;;;0.20;0.20;;;;;;;22.83;14.81;100492.06;5013701;28;20025;-72
2022/04/12 02:34:26;;;;;;;0.20;0.10;;;;;;;22.83;14.75;100497.50;5013599;28;20030;-72
2022/04/12 02:36:52;;;;;;;0.28;0.28;;;;;;;22.75;14.69;100489.84;5012266;28;20041;-73
2022/04/12 02:39:17;;;;;;;0.10;0.10;;;;;;;22.82;14.76;100499.41;5013962;28;20026;-72
2022/04/12 02:41:43;;;;;;;0.20;0.20;;;;;;;22.82;14.67;100502.13;5013872;28;20100;-73
2022/04/12 02:44:08;;;;;;;1.27;0.20;;;;;;;22.83;14.57;100508.41;5013824;28;20531;-73
2022/04/12 02:46:33;;;;;;;0.20;0.20;;;;;;;22.83;14.64;100513.84;5013784;28;20477;-72
2022/04/12 02:48:59;;;;;;;0.20;0.20;;;;;;;22.82;14.52;100509.50;5014024;28;20456;-72
2022/04/12 02:51:24;;;;;;;0.20;0.20;;;;;;;22.81;14.82;100505.94;5013722;28;20526;-72
2022/04/12 02:53:50;;;;;;;0.20;0.20;;;;;;;22.81;14.72;100514.09;5013609;28;20488;-72
2022/04/12 02:56:15;;;;;;;0.20;0.20;;;;;;;22.81;14.81;100514.09;5013663;28;20046;-72
2022/04/12 02:58:40;;;;;;;0.10;0.10;;;;;;;22.80;14.68;100525.28;5013769;28;20029;-73
2022/04/12 03:01:06;;;;;;;0.20;0.20;;;;;;;22.81;14.74;100521.47;5013656;28;20141;-72
2022/04/12 03:03:31;;;;;;;0.20;0.20;;;;;;;22.81;14.83;100522.28;5013645;28;20034;-72
2022/04/12 03:05:57;;;;;;;0.20;0.20;;;;;;;22.82;14.72;100534.03;5013532;28;20025;-72
2022/04/12 03:08:22;;;;;;;0.10;0.10;;;;;;;22.79;14.59;100526.38;5014219;28;20026;-72
2022/04/12 03:10:48;;;;;;;0.30;0.20;;;;;;;22.83;14.74;100538.38;5013296;28;20424;-72
2022/04/12 03:13:13;;;;;;;0.10;0.10;;;;;;;22.86;14.71;100535.94;5013679;28;20082;-72
2022/04/12 03:15:39;;;;;;;0.20;0.20;;;;;;;22.90;14.69;100540.84;5013702;28;20026;-73
2022/04/12 03:18:04;;;;;;;0.20;0.20;;;;;;;22.91;14.87;100542.50;5013625;28;20030;-73
2022/04/12 03:20:30;;;;;;;0.55;0.20;;;;;;;22.96;14.68;100546.06;5013105;28;20026;-73
2022/04/12 03:22:56;;;;;;;0.20;0.20;;;;;;;23.00;14.99;100544.44;5013601;28;20041;-73
2022/04/12 03:25:21;;;;;;;0.20;0.20;;;;;;;23.05;14.94;100549.94;5013793;28;20037;-73
2022/04/12 03:27:46;;;;;;;0.38;0.38;;;;;;;23.11;14.89;100549.94;4997355;28;20084;-73
2022/04/12 03:30:12;;;;;;;0.32;0.22;;;;;;;23.15;15.03;100564.72;4993723;28;20030;-73
2022/04/12 03:32:37;;;;;;;0.20;0.20;;;;;;;23.19;14.94;100554.91;4993261;28;20362;-73
2022/04/12 03:35:03;;;;;;;0.30;0.30;;;;;;;23.15;14.78;100551.06;4994084;28;20106;-73
2022/04/12 03:37:29;;;;;;;0.30;0.30;;;;;;;23.28;14.81;100563.38;4997869;28;20076;-73
2022/04/12 03:39:55;;;;;;;0.30;0.22;;;;;;;23.33;14.92;100561.47;4997540;28;20492;-73
2022/04/12 03:42:21;;;;;;;0.45;0.30;;;;;;;23.37;14.91;100568.03;4997187;28;20045;-73
2022/04/12 03:44:47;;;;;;;0.30;0.30;;;;;;;23.41;14.92;100562.88;4997726;28;20453;-72
2022/04/12 03:47:12;;;;;;;0.28;0.28;;;;;;;23.47;14.91;100571.88;4997362;28;20026;-72
2022/04/12 03:49:39;;;;;;;0.32;0.30;;;;;;;23.46;14.73;100570.22;4997231;28;20457;-73
2022/04/12 03:52:05;;;;;;;0.20;0.20;;;;;;;23.53;14.69;100565.34;4996795;28;20121;-73
2022/04/12 03:54:30;;;;;;;0.38;0.35;;;;;;;23.55;14.65;100568.63;4997231;28;20496;-73
2022/04/12 03:56:56;;;;;;;0.30;0.30;;;;;;;23.61;14.68;100575.72;4995659;28;20034;-73
2022/04/12 03:59:22;;;;;;;0.22;0.22;;;;;;;23.60;14.76;100572.16;4997038;28;20385;-73
2022/04/12 04:01:49;;;;;;;0.55;0.22;;;;;;;23.66;14.69;100570.25;4995793;28;20081;-73
2022/04/12 04:04:15;;;;;;;1.65;0.40;;;;;;;23.69;14.88;100569.72;4996850;28;20041;-73
2022/04/12 04:06:40;;;;;;;0.40;0.35;;;;;;;23.70;14.52;100574.09;4996520;28;20034;-73
2022/04/12 04:09:06;;;;;;;0.22;0.22;;;;;;;23.74;14.75;100582.56;4997254;28;20031;-73
2022/04/12 04:11:31;;;;;;;0.30;0.30;;;;;;;23.70;14.78;100576.84;4997095;28;20030;-73
2022/04/12 04:14:00;;;;;;;0.65;0.40;;;;;;;23.76;14.73;100574.94;4997346;28;20033;-73
2022/04/12 04:16:26;;;;;;;0.45;0.30;;;;;;;23.77;14.91;100576.56;4997638;28;20026;-73
2022/04/12 04:18:51;;;;;;;0.50;0.30;;;;;;;23.68;14.93;100576.28;4997782;28;20106;-73
2022/04/12 04:21:17;;;;;;;0.70;0.30;;;;;;;23.77;15.11;100571.94;4998437;28;20440;-73
2022/04/12 04:23:42;;;;;;;0.43;0.32;;;;;;;23.86;15.22;100579.63;4997904;28;20080;-73
2022/04/12 04:26:07;;;;;;;1.10;0.60;;;;;;;23.88;15.31;100594.63;4998220;28;20026;-71
2022/04/12 04:28:34;;;;;;;0.50;0.50;;;;;;;23.92;15.31;100594.88;5016298;28;20137;-73
2022/04/12 04:30:59;;;;;;;0.63;0.20;;;;;;;24.06;14.78;100596.00;5016098;28;20036;-73
2022/04/12 04:33:25;;;;;;;1.45;0.55;;;;;;;24.21;14.40;100592.44;5015852;28;20030;-72
2022/04/12 04:35:51;;;;;;;0.47;0.38;;;;;;;24.10;14.75;100601.72;5015874;28;20029;-73
2022/04/12 04:38:16;;;;;;;1.42;0.50;;;;;;;24.36;14.51;100605.25;5015734;28;20026;-72
2022/04/12 04:40:42;;;;;;;2.30;0.60;;;;;;;24.49;14.41;100604.72;5015074;28;20026;-73
2022/04/12 04:43:07;;;;;;;1.10;0.50;;;;;;;24.53;14.52;100600.31;5016016;28;20393;-73
2022/04/12 04:45:33;;;;;;;0.30;0.30;;;;;;;24.58;14.51;100606.88;5016490;28;20026;-73
2022/04/12 04:48:00;;;;;;;0.77;0.40;;;;;;;24.63;14.50;100606.88;5015006;28;20489;-73
2022/04/12 04:50:30;;;;;;;3.20;0.55;;;;;;;24.52;14.59;100611.53;5016747;28;20029;-73
2022/04/12 04:52:56;;;;;;;0.73;0.40;;;;;;;24.55;14.57;100611.81;5020165;28;20041;-73
2022/04/12 04:55:21;;;;;;;1.85;0.50;;;;;;;24.58;14.60;100615.09;5023885;28;20083;-73
2022/04/12 04:57:47;;;;;;;0.60;0.40;;;;;;;24.63;14.42;100615.91;5027185;28;20112;-73
2022/04/12 05:00:17;;;;;;;2.08;0.40;;;;;;;24.54;14.71;100629.31;5017752;28;20388;-73
2022/04/12 05:02:46;;;;;;;2.53;0.70;;;;;;;24.73;15.20;100626.00;5017602;28;20026;-74
2022/04/12 05:05:12;;;;;;;1.77;0.68;;;;;;;24.74;15.15;100624.91;5018143;28;20123;-72
2022/04/12 05:07:38;;;;;;;1.90;0.60;;;;;;;24.80;15.23;100628.44;5020016;28;20025;-74
2022/04/12 05:10:04;;;;;;;0.93;0.60;;;;;;;24.84;15.38;100637.75;5018623;28;20112;-74
2022/04/12 05:12:30;;;;;;;1.83;0.40;;;;;;;24.80;15.33;100637.47;5026132;28;20029;-73
2022/04/12 05:14:55;;;;;;;1.45;0.50;;;;;;;24.68;15.52;100639.66;5021974;28;20080;-72
2022/04/12 05:17:25;;;;;;;2.10;0.50;;;;;;;24.85;15.20;100633.91;5021969;28;20026;-73
2022/04/12 05:19:51;;;;;;;3.13;0.80;;;;;;;24.65;15.06;100642.97;5022763;28;20110;-73
2022/04/12 05:22:16;;;;;;;1.38;0.50;;;;;;;24.80;14.94;100637.47;5023240;28;20049;-73
2022/04/12 05:24:42;;;;;;;3.58;0.50;;;;;;;24.93;15.02;100644.28;5022134;28;20038;-73
2022/04/12 05:27:07;;;;;;;1.20;0.52;;;;;;;25.04;14.62;100648.63;5012999;28;20034;-73
2022/04/12 05:29:33;;;;;;;1.52;0.52;;;;;;;25.12;14.76;100649.94;5005453;28;20049;-72
2022/04/12 05:31:58;;;;;;;3.70;0.60;;;;;;;24.91;14.96;100644.53;5009378;28;20046;-73
2022/04/12 05:34:24;;;;;;;2.15;0.57;;;;;;;25.14;14.74;100647.75;5005308;28;20037;-72
2022/04/12 05:36:49;;;;;;;1.73;0.40;;;;;;;25.12;14.56;100655.41;5006573;28;20029;-73
2022/04/12 05:39:14;;;;;;;3.72;0.75;;;;;;;25.14;14.84;100653.22;5006404;28;20038;-73
2022/04/12 05:41:40;;;;;;;3.40;0.70;;;;;;;25.20;14.72;100651.28;5006320;28;20024;-72
2022/04/12 05:44:06;;;;;;;1.65;0.70;;;;;;;25.23;14.55;100650.72;5006167;28;20052;-72
2022/04/12 05:46:31;;;;;;;3.67;0.60;;;;;;;25.37;14.85;100656.44;5008188;28;20026;-73
2022/04/12 05:48:57;;;;;;;5.20;0.80;;;;;;;25.59;14.58;100658.81;5005817;28;20077;-73
2022/04/12 05:51:22;;;;;;;2.65;0.50;;;;;;;25.75;14.42;100656.78;5009645;28;20038;-74
2022/04/12 05:53:48;;;;;;;2.60;0.70;;;;;;;25.74;14.69;100666.94;5008337;28;20054;-73
2022/04/12 05:56:13;;;;;;;3.40;0.75;;;;;;;25.64;14.80;100667.00;5011272;28;20037;-74
2022/04/12 05:58:40;;;;;;;2.50;0.57;;;;;;;25.71;14.56;100661.22;5010970;28;20027;-75
2022/04/12 06:01:06;;;;;;;0.98;0.50;;;;;;;25.68;14.79;100668.91;5009810;28;20105;-73
2022/04/12 06:03:31;;;;;;;1.63;0.60;;;;;;;25.62;14.60;100680.94;5006053;28;20046;-75
2022/04/12 06:05:57;;;;;;;1.33;0.50;;;;;;;25.49;14.71;100681.56;5009114;28;20018;-74
2022/04/12 06:08:22;;;;;;;0.90;0.60;;;;;;;25.47;14.85;100679.13;5012237;28;20117;-74
2022/04/12 06:10:48;;;;;;;1.95;0.60;;;;;;;25.45;14.75;100686.78;5012025;28;20010;-74
2022/04/12 06:13:13;;;;;;;1.75;0.70;;;;;;;25.44;14.74;100689.78;5013257;28;20034;-74
2022/04/12 06:15:39;;;;;;;3.90;1.00;;;;;;;25.41;14.68;100690.38;5012621;28;20030;-74
2022/04/12 06:18:04;;;;;;;2.50;1.10;;;;;;;25.30;14.52;100706.81;5013938;28;20195;-73
2022/04/12 06:20:30;;;;;;;2.50;0.95;;;;;;;25.34;14.59;100700.78;5012150;28;20030;-73
2022/04/12 06:22:55;;;;;;;3.13;1.00;;;;;;;25.32;14.75;100703.81;5012270;28;20014;-75
2022/04/12 06:25:21;;;;;;;1.25;0.82;;;;;;;25.29;14.50;100699.69;5007146;28;20110;-74
2022/04/12 06:27:50;;;;;;;1.60;0.70;;;;;;;25.29;14.43;100702.44;5017602;28;20036;-75
2022/04/12 06:30:17;;;;;;;0.85;0.60;;;;;;;25.33;14.56;100704.63;5024799;28;20029;-74
2022/04/12 06:32:43;;;;;;;1.08;0.55;;;;;;;25.16;14.62;100705.72;5020560;28;20033;-75
2022/04/12 06:35:10;;;;;;;1.00;0.68;;;;;;;25.25;14.33;100708.69;5023054;28;20036;-75
2022/04/12 06:37:35;;;;;;;1.10;0.50;;;;;;;25.21;14.67;100713.91;5024299;28;20030;-75
2022/04/12 06:40:01;;;;;;;1.65;0.60;;;;;;;25.23;14.63;100717.22;5015914;28;20033;-75
2022/04/12 06:42:26;;;;;;;0.63;0.63;;;;;;;25.26;14.33;100715.84;5015611;28;20056;-74
2022/04/12 06:44:52;;;;;;;1.20;0.70;;;;;;;25.23;14.57;100711.75;5014607;28;20377;-76
2022/04/12 06:47:17;;;;;;;0.75;0.50;;;;;;;25.20;14.55;100715.03;5014900;28;20396;-76
2022/04/12 06:49:44;;;;;;;0.90;0.70;;;;;;;25.21;14.55;100718.56;5013177;28;20339;-75
2022/04/12 06:52:10;;;;;;;1.90;1.10;;;;;;;25.21;14.42;100715.84;5013068;28;20046;-75
2022/04/12 06:54:36;;;;;;;3.80;1.10;;;;;;;25.23;14.59;100722.69;5013753;28;20102;-74
2022/04/12 06:57:01;;;;;;;3.70;0.98;;;;;;;25.24;14.24;100729.78;5014151;28;20088;-75
2022/04/12 06:59:27;;;;;;;3.88;1.17;;;;;;;25.19;14.51;100720.75;5013776;28;20026;-75
2022/04/12 07:01:52;;;;;;;2.08;1.13;;;;;;;25.22;14.35;100721.03;5015403;28;20026;-74
2022/04/12 07:04:17;;;;;;;1.67;1.10;;;;;;;25.20;14.73;100717.75;5014107;28;20377;-74
2022/04/12 07:06:43;;;;;;;2.00;1.00;;;;;;;25.20;14.58;100715.03;5013816;28;20101;-74
2022/04/12 07:09:11;;;;;;;1.92;1.05;;;;;;;25.18;14.42;100719.97;5013526;28;20368;-73
2022/04/12 07:11:36;;;;;;;1.40;0.70;;;;;;;25.10;14.54;100725.97;5015969;28;20033;-74
2022/04/12 07:14:01;;;;;;;2.65;0.65;;;;;;;24.79;14.89;100725.22;5017787;28;20052;-73
2022/04/12 07:16:30;;;;;;;1.05;0.70;;;;;;;24.88;14.73;100726.28;5017249;28;20488;-74
2022/04/12 07:18:55;;;;;;;1.00;0.60;;;;;;;24.99;14.77;100727.09;5016764;28;20037;-74
2022/04/12 07:21:21;;;;;;;0.70;0.57;;;;;;;25.12;14.56;100721.06;5017288;28;20025;-75
2022/04/12 07:23:50;;;;;;;3.17;0.75;;;;;;;25.24;14.63;100724.28;5017094;28;20037;-73
2022/04/12 07:26:16;;;;;;;0.80;0.50;;;;;;;25.35;14.37;100721.56;5016763;28;20061;-74
2022/04/12 07:28:42;;;;;;;0.90;0.60;;;;;;;25.43;14.43;100727.28;4999519;28;20033;-74
2022/04/12 07:31:07;;;;;;;0.70;0.50;;;;;;;25.65;14.14;100729.66;4998008;28;20018;-74
2022/04/12 07:33:32;;;;;;;0.73;0.50;;;;;;;25.72;14.04;100736.75;4997449;28;20018;-74
2022/04/12 07:35:58;;;;;;;1.50;0.50;;;;;;;25.74;14.06;100731.81;4998261;28;20479;-73
2022/04/12 07:38:23;;;;;;;2.28;1.00;;;;;;;25.74;13.91;100731.81;4998263;28;20445;-74
2022/04/12 07:40:49;;;;;;;2.22;0.95;;;;;;;25.65;14.05;100729.66;4997410;28;20413;-74
2022/04/12 07:43:15;;;;;;;1.08;0.65;;;;;;;25.53;14.38;100729.16;4997501;28;20096;-75
2022/04/12 07:45:40;;;;;;;1.23;0.55;;;;;;;25.56;14.46;100728.63;4997296;28;20031;-73
2022/04/12 07:48:06;;;;;;;2.40;0.60;;;;;;;25.65;14.32;100724.19;4996776;28;20023;-75
2022/04/12 07:50:32;;;;;;;0.40;0.40;;;;;;;25.73;14.01;100719.22;4997388;28;20026;-74
2022/04/12 07:52:57;;;;;;;1.95;0.50;;;;;;;25.89;14.16;100729.00;4997804;28;20046;-74
2022/04/12 07:55:23;;;;;;;1.42;0.57;;;;;;;25.96;14.03;100729.53;4995901;28;20038;-73
2022/04/12 07:57:48;;;;;;;0.45;0.40;;;;;;;25.78;14.32;100727.41;4997338;28;20116;-74
2022/04/12 08:00:14;;;;;;;0.95;0.40;;;;;;;25.76;14.00;100724.13;4997411;28;20457;-74
2022/04/12 08:02:39;;;;;;;0.85;0.40;;;;;;;25.87;14.04;100722.97;4998082;28;20441;-74
2022/04/12 08:05:05;;;;;;;0.40;0.30;;;;;;;25.98;14.02;100732.00;4995818;28;20035;-74
2022/04/12 08:07:30;;;;;;;0.25;0.25;;;;;;;26.03;13.95;100724.56;4997722;28;20038;-72
2022/04/12 08:09:56;;;;;;;0.35;0.35;;;;;;;26.05;13.79;100727.84;5012414;28;20045;-73
2022/04/12 08:12:21;;;;;;;1.20;0.30;;;;;;;26.12;13.62;100726.72;4997193;28;20026;-74
2022/04/12 08:14:47;;;;;;;0.30;0.25;;;;;;;26.12;13.64;100726.72;4997122;28;20022;-73
2022/04/12 08:17:13;;;;;;;0.40;0.30;;;;;;;26.08;13.87;100731.09;4996412;28;20022;-74
2022/04/12 08:19:39;;;;;;;0.28;0.20;;;;;;;26.05;13.61;100730.56;4995959;28;20038;-74
2022/04/12 08:22:04;;;;;;;0.30;0.30;;;;;;;26.02;13.75;100733.06;4996713;28;20456;-73
2022/04/12 08:24:30;;;;;;;0.40;0.30;;;;;;;26.01;13.74;100735.00;4997421;28;20026;-74
2022/04/12 08:26:55;;;;;;;0.77;0.40;;;;;;;26.02;13.72;100736.59;4997336;28;20034;-74
2022/04/12 08:29:21;;;;;;;2.83;0.30;;;;;;;26.01;13.67;100735.00;5016821;28;20534;-74
2022/04/12 08:31:46;;;;;;;0.47;0.30;;;;;;;25.98;13.54;100732.81;5015971;28;20034;-74
2022/04/12 08:34:12;;;;;;;0.30;0.30;;;;;;;25.98;13.73;100740.22;5015691;28;20034;-75
2022/04/12 08:36:37;;;;;;;0.47;0.20;;;;;;;25.96;13.88;100742.44;5015766;28;20026;-76
2022/04/12 08:39:03;;;;;;;0.38;0.30;;;;;;;25.95;13.71;100741.59;5015182;28;20049;-74
2022/04/12 08:41:28;;;;;;;0.20;0.20;;;;;;;25.92;13.80;100744.84;5015945;28;20030;-75
2022/04/12 08:43:59;;;;;;;0.20;0.20;;;;;;;25.93;13.83;100746.50;5030480;28;20042;-75
2022/04/12 08:46:25;;;;;;;1.45;0.30;;;;;;;25.95;13.57;100743.50;5015457;28;20026;-76
2022/04/12 08:48:54;;;;;;;0.20;0.20;;;;;;;25.91;13.63;100739.69;5015501;28;20040;-75
2022/04/12 08:51:21;;;;;;;0.43;0.28;;;;;;;25.91;13.48;100743.22;5016524;28;20026;-75
2022/04/12 08:53:47;;;;;;;0.22;0.13;;;;;;;25.95;13.52;100749.78;5014359;28;20045;-77
2022/04/12 08:56:12;;;;;;;0.73;0.30;;;;;;;25.93;13.74;100748.44;5015956;28;20484;-76
2022/04/12 08:58:38;;;;;;;0.20;0.20;;;;;;;25.93;13.55;100751.97;5015493;28;20037;-75
2022/04/12 09:01:03;;;;;;;4.13;0.82;;;;;;;25.95;13.73;100749.78;5015747;28;20033;-77
2022/04/12 09:03:31;;;;;;;3.80;0.45;;;;;;;25.95;13.45;100749.78;5015763;28;20437;-76
2022/04/12 09:05:57;;;;;;;1.10;0.30;;;;;;;25.94;13.60;100753.66;5015525;28;20088;-76
2022/04/12 09:08:24;;;;;;;0.45;0.32;;;;;;;25.97;13.77;100755.81;5015167;28;20038;-76
2022/04/12 09:10:55;;;;;;;0.52;0.30;;;;;;;25.97;13.58;100757.72;5016628;28;20036;-74
2022/04/12 09:13:20;;;;;;;1.90;0.38;;;;;;;25.98;14.02;100751.97;5016774;28;20056;-74
2022/04/12 09:15:46;;;;;;;0.45;0.30;;;;;;;26.05;13.69;100748.94;5017854;28;20456;-73
2022/04/12 09:18:11;;;;;;;0.95;0.30;;;;;;;26.12;13.45;100754.09;5017775;28;20025;-74
2022/04/12 09:20:37;;;;;;;0.20;0.20;;;;;;;26.14;13.47;100752.69;5016194;28;20045;-73
2022/04/12 09:23:02;;;;;;;3.70;0.30;;;;;;;26.10;13.47;100756.31;5016740;28;20073;-74
2022/04/12 09:25:28;;;;;;;0.38;0.20;;;;;;;26.13;13.60;100761.19;5016338;28;20361;-73
2022/04/12 09:27:55;;;;;;;2.35;0.40;;;;;;;26.13;13.78;100761.19;5008338;28;20487;-72
2022/04/12 09:30:21;;;;;;;2.38;0.40;;;;;;;26.15;13.58;100767.25;4995825;28;20022;-73
2022/04/12 09:32:48;;;;;;;13.55;0.75;;;;;;;26.08;13.83;100762.06;4995888;28;20428;-74
2022/04/12 09:35:14;;;;;;;8.63;0.63;;;;;;;26.12;13.79;100763.13;4995574;28;20026;-73
2022/04/12 09:37:41;;;;;;;0.47;0.40;;;;;;;26.08;13.79;100764.81;4995619;28;20030;-74
2022/04/12 09:40:11;;;;;;;1.17;0.30;;;;;;;26.13;13.66;100767.50;4994632;28;20022;-75
2022/04/12 09:42:54;;;;;;;1.40;0.50;;;;;;;26.18;13.76;100764.75;4995720;28;20042;-73
2022/04/12 09:45:27;;;;;;;0.80;0.40;;;;;;;26.17;13.73;100767.75;4979146;28;20500;-74
2022/04/12 09:48:03;;;;;;;1.55;0.30;;;;;;;26.02;13.95;100763.19;4996276;28;20034;-75
2022/04/12 09:50:29;;;;;;;0.30;0.30;;;;;;;25.99;13.64;100775.53;4996536;28;20026;-74
2022/04/12 09:52:58;;;;;;;1.58;0.20;;;;;;;26.12;13.53;100776.00;4995993;28;20065;-74
2022/04/12 09:55:33;;;;;;;0.22;0.22;;;;;;;26.25;13.49;100775.41;4995882;28;20050;-74
2022/04/12 09:58:00;;;;;;;0.47;0.28;;;;;;;26.23;13.42;100772.94;4996165;28;20026;-76
2022/04/12 10:00:26;;;;;;;1.98;0.20;;;;;;;26.23;13.30;100772.09;4997370;28;20426;-76
2022/04/12 10:02:51;;;;;;;0.40;0.22;;;;;;;26.37;13.29;100778.59;4996652;28;20027;-76
2022/04/12 10:05:16;;;;;;;1.38;0.20;;;;;;;26.38;13.24;100774.75;5012166;28;20038;-76
2022/04/12 10:07:42;;;;;;;0.10;0.10;;;;;;;26.39;13.31;100773.66;4995470;28;20185;-74
2022/04/12 10:10:07;;;;;;;0.47;0.22;;;;;;;26.34;13.28;100775.63;4977543;28;20023;-75
2022/04/12 10:12:34;;;;;;;1.05;0.20;;;;;;;26.18;13.58;100774.88;4993694;28;20077;-74
2022/04/12 10:15:01;;;;;;;1.25;0.20;;;;;;;26.19;13.45;100776.50;4994914;28;20030;-73
2022/04/12 10:17:26;;;;;;;0.20;0.20;;;;;;;26.26;13.66;100781.69;4993255;28;20022;-75
2022/04/12 10:19:51;;;;;;;0.75;0.20;;;;;;;26.41;13.29;100784.31;4993255;28;20022;-73
2022/04/12 10:22:17;;;;;;;0.60;0.30;;;;;;;26.35;13.51;100790.94;4993228;28;20085;-76
2022/04/12 10:24:42;;;;;;;0.20;0.20;;;;;;;26.40;13.44;100786.22;4994110;28;20311;-75
2022/04/12 10:27:08;;;;;;;0.20;0.20;;;;;;;26.38;13.23;100785.69;4994700;28;20026;-75
2022/04/12 10:29:33;;;;;;;0.15;0.15;;;;;;;26.68;13.01;100786.63;5013946;28;20468;-75
2022/04/12 10:32:01;;;;;;;0.17;0.17;;;;;;;26.78;12.93;100789.25;5013717;28;20362;-76
2022/04/12 10:34:26;;;;;;;0.20;0.20;;;;;;;26.78;12.96;100794.75;5014073;28;20106;-74
2022/04/12 10:36:54;;;;;;;1.20;0.20;;;;;;;26.78;13.06;100794.75;5013767;28;20026;-74
2022/04/12 10:39:32;;;;;;;0.82;0.20;;;;;;;26.77;12.67;100795.88;5014025;28;20484;-75
2022/04/12 10:42:02;;;;;;;1.02;0.50;;;;;;;26.72;12.98;100797.84;5013919;28;20032;-75
2022/04/12 10:44:27;;;;;;;0.75;0.30;;;;;;;26.63;13.11;100792.16;5012958;28;20022;-75
2022/04/12 10:46:55;;;;;;;0.22;0.22;;;;;;;26.64;13.14;100793.78;5013082;28;20388;-74
2022/04/12 10:49:21;;;;;;;1.30;0.30;;;;;;;26.65;12.94;100798.16;5012116;28;20030;-74
2022/04/12 10:51:57;;;;;;;1.67;0.90;;;;;;;26.65;13.15;100787.19;5013154;28;20049;-72
2022/04/12 10:54:30;;;;;;;1.88;0.95;;;;;;;26.64;13.20;100793.78;5012417;28;20022;-74
2022/04/12 10:57:24;;;;;;;2.38;0.70;;;;;;;26.46;13.18;100798.00;5013677;28;20045;-74
2022/04/12 10:59:57;;;;;;;1.88;0.70;;;;;;;26.47;13.24;100798.81;5013552;28;20106;-73
2022/04/12 11:02:27;;;;;;;1.17;0.70;;;;;;;26.46;13.27;100791.66;5013619;28;20399;-74
2022/04/12 11:04:53;;;;;;;3.03;1.00;;;;;;;26.50;13.40;100798.25;5014289;28;20034;-73
2022/04/12 11:07:32;;;;;;;3.90;1.80;;;;;;;26.48;13.33;100792.22;5013533;28;20117;-74
2022/04/12 11:10:12;;;;;;;10.43;3.35;;;;;;;26.48;13.46;100787.56;5011880;28;20030;-74
2022/04/12 11:12:42;;;;;;;9.88;2.85;;;;;;;26.41;13.44;100793.34;5013664;28;20033;-73
2022/04/12 11:15:27;;;;;;;5.40;1.80;;;;;;;26.40;13.18;100797.19;5013403;28;20057;-74
2022/04/12 11:18:12;;;;;;;4.03;1.63;;;;;;;26.40;13.11;100799.94;5013089;28;20124;-74
2022/04/12 11:20:40;;;;;;;3.22;1.02;;;;;;;26.37;13.11;100800.53;5013456;28;20026;-74
2022/04/12 11:23:09;;;;;;;2.50;1.20;;;;;;;26.33;13.15;100804.91;5013282;28;20472;-74